Aeroporto :
LOGIN :

Iscrizione | Disclaimer

   EN    FR    IT 

 










Sommario :    VFR   VFR Marginale   IFR   IFR Intensivo   IFR Molto Intensivo
Visibilità : 
Base nubi : 
>= 8 km
>= 3000ft
5 / 8 km
1000 / 3000 ft
1500m / 5 km
500 / 1000 ft
800 / 1500m
200 / 500 ft
< 800m
< 200 ft
Simboli :   Temporali  Nebbia  Neve Forte  Precipitazioni Forti  Vento > 20 kt
SIGMETs :   Varie  Temporali  Ghiacco  Turbolenza  Onda orograficha  Ceneri Vulcaniche






- Altitudine del aeroporto : 755 ft
- Codice IATA : DRS


EDDC - Dresden Klotzsche

ULTIMO METAR :
  • 192320Z 28011KT 240V320 CAVOK 05/M02 Q1020

METARs OBSOLETI :
  • 192250Z 27011KT 240V310 CAVOK 05/M01 Q1020
  • 192220Z 27011KT 250V330 CAVOK 05/M01 Q1020
  • 192150Z 28010KT 230V330 CAVOK 05/M01 Q1019
  • 192120Z 26011KT 230V300 9999 -RA OVC038 05/M00 Q1019 NOSIG
  • 192050Z 26011KT 230V300 9999 -RA OVC038 05/M01 Q1019 NOSIG
  • 192020Z 27012KT 9999 BKN036 05/M01 Q1019 NOSIG

TAF TAF EDDC
Valido dal 19 a 18 ore il 20 a 18 ore UTC


191700Z 1918/2018 27012KT 9999 BKN025
TEMPO 1918/1921 27015G25KT
BECMG 2001/2004 21008KT



MetMap, La meteo Aeronautica in un colpo d'occhio ! - Copyright ORBIFLY Dicembre 2007 - Disclaimer

ORBIFLY MET'MAP TEAM :

Programmazione e sviluppo : Alexandra Zaïnal
Concezione : Baudouin d'Aumeries
Aiuto per la programmazione : Marc-Olivier Méhu
Supporto tecnico e logistico : Manuel Goepfert
Aiuto per la traduzione : Arnaldo La Scala

Contatto : metmap@orbifly.com




FONTI E CREDITI :

   NOAA